Etusivu
METAR-TAF:

METAR-TAF

Lentoasemat :

Driggs, Idaho, Yhdysvallat

Leveyspiiri: 43-44-33N, Pituuspiiri: 111-05-51W, korkeus merenpinnasta: 1899 m

Tämänhetkinen sää

Tämä raportti tehtiin 29 minuuttia sitten, kello 20.56 UTC
tyyntä
Lämpötila 5°C
Kosteus 52%
Ilmanpaine 1024 hPa
Näkyvyys: 16.1 km
selkeää

METAR: KDIJ 202056Z AUTO 00000KT 10SM CLR 05/M04 A3023 RMK AO2 SLP273 P0001 60006 T00501044 56013

Aika: 14:25 (21:25 UTC)

Sääennuste

Tämä raportti tehtiin 3 tuntia ja 52 minuuttia sitten, kello 17.33 UTC
Ennuste voimassa 20. päivästä klo 18 UTC - 21. päivään klo 18 UTC
Tuuli 5 kn eri suunnista
Näkyvyys: 10 km
Muutamia pilviä 20000 ft:n korkeudessa

TAF: KDIJ 201733Z 2018/2118 VRB05KT P6SM FEW200 AMD LTD TO CLD VIS AND WIND

Säähavainnot ja -ennusteet yli 4000 lentoasemalta (METAR- ja TAF-raportit).

Käytössä olevat sääasemat on merkitty karttaan keltaisilla ja punaisilla pisteillä.

Aseta hiiri pisteen päälle nähdäksesi sääaseman nimen.

Klikkaa sitten nähdäksesi säähavainnot ja -ennusteet.

Kartan vaihtaminen: klikkaa mustalla rastilla varustettuja vihreitä pisteitä, niin voit zoomata sisään; viivalla varustettua vihreää pistettä, niin voit zoomata ulos tai vihreitä nuolia, niin pääset viereisille kartoille.


METAR-TAF: